Time;durP1;ratioP1;P1;durP2;ratioP2;P2;SDS_P1;SDS_P2;PMS_P1;PMS_P2;Temp;Humidity;BMP_temperature;BMP_pressure;BME280_temperature;BME280_humidity;BME280_pressure;Samples;Min_cycle;Max_cycle;Signal;HPM_P1;HPM_P2
2021/08/28 00:00:53;;;;;;;17.13;8.90;;;14.10;99.90;;;;;;5037706;28;20516;-59
2021/08/28 00:03:20;;;;;;;19.40;8.85;;;13.80;99.90;;;;;;5037115;28;20013;-59
2021/08/28 00:05:46;;;;;;;25.75;11.18;;;13.60;99.90;;;;;;5035390;28;20030;-59
2021/08/28 00:08:12;;;;;;;21.63;10.70;;;13.70;99.90;;;;;;5037656;28;20024;-60
2021/08/28 00:10:37;;;;;;;23.08;10.40;;;13.80;99.90;;;;;;5034383;28;20061;-59
2021/08/28 00:13:04;;;;;;;25.33;10.93;;;13.80;99.90;;;;;;5031429;28;20065;-60
2021/08/28 00:15:30;;;;;;;27.35;11.73;;;14.00;99.90;;;;;;5035224;28;20025;-59
2021/08/28 00:17:56;;;;;;;21.58;10.63;;;13.90;99.90;;;;;;5032750;28;20509;-59
2021/08/28 00:20:22;;;;;;;25.65;10.63;;;13.90;99.90;;;;;;5036133;28;20034;-60
2021/08/28 00:22:47;;;;;;;23.02;9.45;;;14.00;99.90;;;;;;5042154;28;20041;-59
2021/08/28 00:25:13;;;;;;;21.77;9.90;;;14.00;99.90;;;;;;5037799;28;20085;-59
2021/08/28 00:27:39;;;;;;;20.67;9.23;;;14.00;99.90;;;;;;5032870;28;20029;-60
2021/08/28 00:30:06;;;;;;;21.83;9.25;;;13.90;99.90;;;;;;5038857;28;20401;-59
2021/08/28 00:32:32;;;;;;;21.83;9.02;;;13.80;99.90;;;;;;5040301;28;20508;-60
2021/08/28 00:34:57;;;;;;;19.58;9.50;;;13.90;99.90;;;;;;5035271;28;20025;-59
2021/08/28 00:37:23;;;;;;;31.35;9.80;;;13.80;99.90;;;;;;5039582;28;20848;-59
2021/08/28 00:39:49;;;;;;;20.25;9.27;;;13.70;99.90;;;;;;5035056;28;20088;-59
2021/08/28 00:42:14;;;;;;;22.20;9.52;;;13.50;99.90;;;;;;5038769;28;20792;-59
2021/08/28 00:44:41;;;;;;;19.05;9.20;;;13.40;99.90;;;;;;5039975;28;20063;-59
2021/08/28 00:47:06;;;;;;;23.55;9.95;;;13.30;99.90;;;;;;5039912;28;20090;-59
2021/08/28 00:49:32;;;;;;;22.33;10.52;;;13.10;99.90;;;;;;5041007;28;20029;-59
2021/08/28 00:52:02;;;;;;;25.98;10.15;;;13.40;99.90;;;;;;5039926;28;20021;-60
2021/08/28 00:54:27;;;;;;;21.38;10.50;;;13.50;99.90;;;;;;5042409;28;20529;-59
2021/08/28 00:56:53;;;;;;;20.67;9.88;;;13.70;99.90;;;;;;5037230;28;20124;-59
2021/08/28 00:59:19;;;;;;;23.88;10.82;;;13.90;99.90;;;;;;5036289;28;20021;-60
2021/08/28 01:01:45;;;;;;;25.35;10.38;;;13.90;99.90;;;;;;5038087;28;20090;-59
2021/08/28 01:04:15;;;;;;;24.88;10.30;;;13.90;99.90;;;;;;5033211;28;20079;-60
2021/08/28 01:07:04;;;;;;;25.00;10.88;;;14.20;99.90;;;;;;5040701;28;20071;-60
2021/08/28 01:09:33;;;;;;;19.67;8.75;;;14.00;99.90;;;;;;5033555;28;20025;-59
2021/08/28 01:12:06;;;;;;;20.63;9.40;;;14.00;99.90;;;;;;5032044;28;20025;-60
2021/08/28 01:14:34;;;;;;;21.55;9.98;;;14.00;99.90;;;;;;5033399;28;20477;-59
2021/08/28 01:17:05;;;;;;;22.10;9.88;;;14.00;99.90;;;;;;5041668;28;20021;-59
2021/08/28 01:19:36;;;;;;;27.55;10.73;;;14.00;99.90;;;;;;5031638;28;20033;-60
2021/08/28 01:22:08;;;;;;;20.30;9.55;;;14.00;99.90;;;;;;5040028;28;20036;-60
2021/08/28 01:24:36;;;;;;;20.77;9.80;;;14.00;99.90;;;;;;5041338;28;20492;-60
2021/08/28 01:27:25;;;;;;;19.23;10.15;;;13.90;99.90;;;;;;5041998;28;20021;-60
2021/08/28 01:29:52;;;;;;;24.83;10.50;;;14.00;99.90;;;;;;5038005;28;20025;-60
2021/08/28 01:32:19;;;;;;;31.02;10.80;;;14.00;99.90;;;;;;5041830;28;20071;-60
2021/08/28 01:34:46;;;;;;;25.40;10.25;;;14.00;99.90;;;;;;5037493;28;20025;-60
2021/08/28 01:37:13;;;;;;;30.70;10.90;;;14.00;99.90;;;;;;5037928;28;20621;-60
2021/08/28 01:39:41;;;;;;;26.05;11.05;;;13.90;99.90;;;;;;5038976;28;20083;-59
2021/08/28 01:42:07;;;;;;;22.40;10.48;;;14.00;99.90;;;;;;5044737;28;20048;-59
2021/08/28 01:44:33;;;;;;;27.30;12.07;;;14.00;99.90;;;;;;5047506;28;20079;-59
2021/08/28 01:46:59;;;;;;;31.38;12.38;;;13.90;99.90;;;;;;5041556;28;20029;-59
2021/08/28 01:49:26;;;;;;;23.80;12.30;;;14.00;99.90;;;;;;5049678;28;20183;-59
2021/08/28 01:51:52;;;;;;;28.40;13.18;;;13.90;99.90;;;;;;5050203;28;20040;-60
2021/08/28 01:54:17;;;;;;;29.17;12.30;;;14.00;99.90;;;;;;5048710;28;20542;-59
2021/08/28 01:56:43;;;;;;;28.80;13.30;;;14.00;99.90;;;;;;5049250;28;20029;-59
2021/08/28 01:59:09;;;;;;;31.23;12.65;;;14.00;99.90;;;;;;5049516;28;20116;-59
2021/08/28 02:01:35;;;;;;;32.70;13.18;;;13.90;99.90;;;;;;5044790;28;20033;-60
2021/08/28 02:04:01;;;;;;;34.05;14.70;;;14.00;99.90;;;;;;5053479;28;20100;-60
2021/08/28 02:06:40;;;;;;;35.08;14.93;;;14.00;99.90;;;;;;5049089;28;20025;-59
2021/08/28 02:09:19;;;;;;;33.97;15.25;;;14.00;99.90;;;;;;5041918;28;20029;-59
2021/08/28 02:12:19;;;;;;;32.13;14.00;;;14.00;99.90;;;;;;5050189;28;20020;-60
2021/08/28 02:14:58;;;;;;;41.85;16.00;;;14.00;99.90;;;;;;5006672;28;20485;-59
2021/08/28 02:17:26;;;;;;;44.35;16.98;;;14.00;99.90;;;;;;5048138;28;20037;-60
2021/08/28 02:19:54;;;;;;;41.20;16.92;;;14.00;99.90;;;;;;5049623;28;20040;-59
2021/08/28 02:22:28;;;;;;;43.20;16.75;;;14.10;99.90;;;;;;5042523;28;20347;-59
2021/08/28 02:25:01;;;;;;;42.42;16.80;;;14.10;99.90;;;;;;5049215;28;20025;-60
2021/08/28 02:27:35;;;;;;;41.67;16.88;;;14.00;99.90;;;;;;5044798;28;20009;-60
2021/08/28 02:30:07;;;;;;;43.47;17.95;;;14.00;99.90;;;;;;5043107;28;20029;-60
2021/08/28 02:32:34;;;;;;;41.88;17.30;;;14.10;99.90;;;;;;5046700;28;20029;-60
2021/08/28 02:35:01;;;;;;;39.47;16.48;;;14.10;99.90;;;;;;5048888;28;20025;-60
2021/08/28 02:37:30;;;;;;;41.25;17.67;;;14.10;99.90;;;;;;5048573;28;20021;-59
2021/08/28 02:40:08;;;;;;;39.05;17.65;;;14.00;99.90;;;;;;5047979;28;20028;-60
2021/08/28 02:42:35;;;;;;;40.38;16.77;;;14.10;99.90;;;;;;5048427;28;20075;-60
2021/08/28 02:45:02;;;;;;;39.25;15.45;;;14.00;99.90;;;;;;5048437;28;20025;-59
2021/08/28 02:47:28;;;;;;;42.20;17.95;;;14.10;99.90;;;;;;5048785;28;20104;-60
2021/08/28 02:49:56;;;;;;;36.22;16.63;;;14.20;99.90;;;;;;5047568;28;20037;-60
2021/08/28 02:52:23;;;;;;;37.40;17.05;;;14.10;99.90;;;;;;5048882;28;20021;-60
2021/08/28 02:54:50;;;;;;;41.20;17.60;;;14.00;99.90;;;;;;5047433;28;20683;-60
2021/08/28 02:57:17;;;;;;;41.75;16.90;;;14.00;99.90;;;;;;5047025;28;20033;-60
2021/08/28 02:59:46;;;;;;;36.25;16.52;;;14.00;99.90;;;;;;5045377;28;20040;-60
2021/08/28 03:02:11;;;;;;;38.13;16.40;;;14.10;99.90;;;;;;5039686;28;20026;-59
2021/08/28 03:04:39;;;;;;;42.47;17.05;;;14.00;99.90;;;;;;5050546;28;20036;-60
2021/08/28 03:07:05;;;;;;;32.53;14.98;;;14.10;99.90;;;;;;5046041;28;20049;-60
2021/08/28 03:09:32;;;;;;;38.92;15.80;;;14.00;99.90;;;;;;5048566;28;20021;-59
2021/08/28 03:11:58;;;;;;;36.47;15.50;;;14.00;99.90;;;;;;5041569;28;20021;-60
2021/08/28 03:14:25;;;;;;;32.10;15.40;;;14.10;99.90;;;;;;5043579;28;20115;-59
2021/08/28 03:16:52;;;;;;;32.80;15.63;;;14.00;99.90;;;;;;5046750;28;20460;-60
2021/08/28 03:19:23;;;;;;;33.22;15.10;;;14.20;99.90;;;;;;5047722;28;20032;-60
2021/08/28 03:21:50;;;;;;;33.85;14.27;;;14.30;99.90;;;;;;5048565;28;20440;-61
2021/08/28 03:24:19;;;;;;;34.38;14.02;;;14.40;99.90;;;;;;5046982;28;20489;-60
2021/08/28 03:26:45;;;;;;;29.50;13.07;;;14.40;99.90;;;;;;5042850;28;20028;-60
2021/08/28 03:29:13;;;;;;;32.88;13.70;;;14.40;99.90;;;;;;5048520;28;20052;-60
2021/08/28 03:31:39;;;;;;;29.40;13.93;;;14.40;99.90;;;;;;5045858;28;20060;-59
2021/08/28 03:34:05;;;;;;;33.45;13.15;;;14.30;99.90;;;;;;5046615;28;20469;-61
2021/08/28 03:36:31;;;;;;;28.38;13.13;;;14.40;99.90;;;;;;5043055;28;20516;-59
2021/08/28 03:38:59;;;;;;;32.85;13.65;;;14.30;99.90;;;;;;5044854;28;20040;-59
2021/08/28 03:41:25;;;;;;;36.35;13.88;;;14.30;99.90;;;;;;5046524;28;20029;-59
2021/08/28 03:43:51;;;;;;;37.85;14.43;;;14.30;99.90;;;;;;5047805;28;20385;-61
2021/08/28 03:46:17;;;;;;;39.17;15.13;;;14.20;99.90;;;;;;5046795;28;20433;-60
2021/08/28 03:48:42;;;;;;;35.42;14.65;;;14.20;99.90;;;;;;5047666;28;20393;-60
2021/08/28 03:51:08;;;;;;;32.45;14.82;;;14.20;99.90;;;;;;5047701;28;20028;-60
2021/08/28 03:53:34;;;;;;;40.90;15.93;;;14.20;99.90;;;;;;5043171;28;20040;-60
2021/08/28 03:56:00;;;;;;;37.67;14.90;;;14.20;99.90;;;;;;5046627;28;20029;-60
2021/08/28 03:58:27;;;;;;;34.88;14.05;;;14.20;99.90;;;;;;5044446;28;20021;-60
2021/08/28 04:00:53;;;;;;;33.53;15.50;;;14.20;99.90;;;;;;5044093;28;20017;-59
2021/08/28 04:03:19;;;;;;;30.92;14.73;;;14.20;99.90;;;;;;5047320;28;20020;-61
2021/08/28 04:05:44;;;;;;;34.50;14.93;;;14.20;99.90;;;;;;5042723;28;20032;-60
2021/08/28 04:08:10;;;;;;;33.92;14.48;;;14.20;99.90;;;;;;5035652;28;20051;-61
2021/08/28 04:10:36;;;;;;;35.33;15.30;;;14.20;99.90;;;;;;5046886;28;20329;-60
2021/08/28 04:13:02;;;;;;;35.95;15.93;;;14.20;99.90;;;;;;5046682;28;20033;-60
2021/08/28 04:15:27;;;;;;;34.38;16.75;;;14.20;99.90;;;;;;5047483;28;20089;-60
2021/08/28 04:17:54;;;;;;;35.60;15.77;;;14.20;99.90;;;;;;5046727;28;20045;-60
2021/08/28 04:20:19;;;;;;;31.90;15.18;;;14.20;99.90;;;;;;5045955;28;20025;-60
2021/08/28 04:22:45;;;;;;;41.08;16.45;;;14.20;99.90;;;;;;5047152;28;20542;-61
2021/08/28 04:25:11;;;;;;;38.70;16.95;;;14.20;99.90;;;;;;5045814;28;20083;-61
2021/08/28 04:27:37;;;;;;;38.03;17.02;;;14.30;99.90;;;;;;5047119;28;20020;-60
2021/08/28 04:30:05;;;;;;;35.40;13.27;;;14.30;99.90;;;;;;5045961;28;20024;-60
2021/08/28 04:32:31;;;;;;;34.45;14.95;;;14.20;99.90;;;;;;5043359;28;20186;-60
2021/08/28 04:34:57;;;;;;;41.05;15.63;;;14.10;99.90;;;;;;5039774;28;20499;-59
2021/08/28 04:37:22;;;;;;;41.05;17.23;;;14.00;99.90;;;;;;5046045;28;20079;-61
2021/08/28 04:39:48;;;;;;;36.78;17.33;;;14.00;99.90;;;;;;5046713;28;20036;-60
2021/08/28 04:42:14;;;;;;;49.08;18.77;;;14.10;99.90;;;;;;5046821;28;20033;-59
2021/08/28 04:44:39;;;;;;;39.38;16.73;;;14.10;99.90;;;;;;5045766;28;20500;-61
2021/08/28 04:47:05;;;;;;;47.30;18.35;;;14.10;99.90;;;;;;5042756;28;20032;-60
2021/08/28 04:49:30;;;;;;;42.08;16.00;;;14.10;99.90;;;;;;5047408;28;20024;-61
2021/08/28 04:51:56;;;;;;;43.22;17.70;;;14.10;99.90;;;;;;5046410;28;20058;-60
2021/08/28 04:54:22;;;;;;;40.15;18.23;;;14.10;99.90;;;;;;5046164;28;20480;-59
2021/08/28 04:56:47;;;;;;;47.55;18.02;;;14.10;99.90;;;;;;5046239;28;20033;-61
2021/08/28 04:59:13;;;;;;;44.03;18.15;;;14.10;99.90;;;;;;5046372;28;20029;-60
2021/08/28 05:01:41;;;;;;;44.00;17.42;;;14.20;99.90;;;;;;5044807;28;20082;-61
2021/08/28 05:04:07;;;;;;;40.38;16.23;;;14.10;99.90;;;;;;5037772;28;20488;-61
2021/08/28 05:06:33;;;;;;;42.10;18.08;;;14.10;99.90;;;;;;5041120;28;20013;-61
2021/08/28 05:08:58;;;;;;;43.17;17.83;;;14.20;99.90;;;;;;5038441;28;20477;-60
2021/08/28 05:11:24;;;;;;;44.88;18.13;;;14.20;99.90;;;;;;5046022;28;20074;-61
2021/08/28 05:13:49;;;;;;;49.30;17.77;;;14.20;99.90;;;;;;5048245;28;20022;-61
2021/08/28 05:16:15;;;;;;;44.75;17.58;;;14.20;99.90;;;;;;5049925;28;20495;-60
2021/08/28 05:18:41;;;;;;;41.95;17.05;;;14.30;99.90;;;;;;5049129;28;20459;-61
2021/08/28 05:21:06;;;;;;;43.70;17.08;;;14.20;99.90;;;;;;5050563;28;20040;-60
2021/08/28 05:23:32;;;;;;;40.53;15.43;;;14.30;99.90;;;;;;5041268;28;20021;-60
2021/08/28 05:25:58;;;;;;;43.45;17.35;;;14.20;99.90;;;;;;5050442;28;20124;-60
2021/08/28 05:28:23;;;;;;;43.13;16.80;;;14.20;99.90;;;;;;5042158;28;20031;-60
2021/08/28 05:30:49;;;;;;;41.05;17.10;;;14.30;99.90;;;;;;5050455;28;20443;-61
2021/08/28 05:33:15;;;;;;;36.90;15.60;;;14.20;99.90;;;;;;5050026;28;20029;-61
2021/08/28 05:35:41;;;;;;;39.83;16.52;;;14.30;99.90;;;;;;5049243;28;20033;-61
2021/08/28 05:38:07;;;;;;;37.30;14.77;;;14.30;99.90;;;;;;5039496;28;20041;-61
2021/08/28 05:40:32;;;;;;;38.97;15.18;;;14.20;99.90;;;;;;5047046;28;20021;-60
2021/08/28 05:42:58;;;;;;;33.42;14.38;;;14.20;99.90;;;;;;5047337;28;20059;-59
2021/08/28 05:45:24;;;;;;;41.03;15.35;;;14.20;99.90;;;;;;5045986;28;20025;-60
2021/08/28 05:47:50;;;;;;;35.60;14.73;;;14.20;99.90;;;;;;5049447;28;20102;-60
2021/08/28 05:50:16;;;;;;;31.75;12.43;;;14.20;99.90;;;;;;5048955;28;20100;-60
2021/08/28 05:52:43;;;;;;;32.90;13.50;;;14.20;99.90;;;;;;5049795;28;20125;-60
2021/08/28 05:55:12;;;;;;;29.15;11.13;;;14.10;99.90;;;;;;5043849;28;20021;-60
2021/08/28 05:57:39;;;;;;;25.65;10.15;;;14.20;99.90;;;;;;5046252;28;20025;-60
2021/08/28 06:00:05;;;;;;;26.20;11.38;;;14.20;99.90;;;;;;5045344;28;20029;-61
2021/08/28 06:02:31;;;;;;;25.45;10.15;;;14.20;99.90;;;;;;5050046;28;20052;-60
2021/08/28 06:04:57;;;;;;;24.27;10.00;;;14.20;99.90;;;;;;5047789;28;20423;-61
2021/08/28 06:07:22;;;;;;;21.00;9.55;;;14.10;99.90;;;;;;5038671;28;20032;-60
2021/08/28 06:09:48;;;;;;;21.92;9.10;;;14.10;99.90;;;;;;5048181;28;20025;-60
2021/08/28 06:12:13;;;;;;;23.48;10.90;;;14.10;99.90;;;;;;5049087;28;20059;-61
2021/08/28 06:14:39;;;;;;;19.83;8.15;;;14.20;99.90;;;;;;5049241;28;20108;-60
2021/08/28 06:17:05;;;;;;;21.55;10.00;;;14.20;99.90;;;;;;5047539;28;20020;-61
2021/08/28 06:19:30;;;;;;;20.00;8.88;;;14.20;99.90;;;;;;5049301;28;20041;-60
2021/08/28 06:21:56;;;;;;;16.80;8.43;;;14.10;99.90;;;;;;5042320;28;20045;-61
2021/08/28 06:24:21;;;;;;;18.27;8.23;;;14.10;99.90;;;;;;5046472;28;20024;-59
2021/08/28 06:26:47;;;;;;;17.77;7.88;;;14.10;99.90;;;;;;5045512;28;20029;-59
2021/08/28 06:29:13;;;;;;;13.60;5.97;;;14.20;99.90;;;;;;5044049;28;20457;-59
2021/08/28 06:31:38;;;;;;;15.68;8.05;;;14.20;99.90;;;;;;5046155;28;20052;-59
2021/08/28 06:34:04;;;;;;;15.40;7.47;;;14.20;99.90;;;;;;5045627;28;20127;-61
2021/08/28 06:36:29;;;;;;;13.75;6.75;;;14.20;99.90;;;;;;5045817;28;20017;-59
2021/08/28 06:38:55;;;;;;;16.45;7.32;;;14.30;99.90;;;;;;5044661;28;20400;-61
2021/08/28 06:41:21;;;;;;;15.13;6.80;;;14.40;99.90;;;;;;5043178;28;20112;-61
2021/08/28 06:43:46;;;;;;;15.68;7.28;;;14.40;99.90;;;;;;5047646;28;20017;-59
2021/08/28 06:46:12;;;;;;;14.55;6.90;;;14.40;99.90;;;;;;5046880;28;20103;-60
2021/08/28 06:48:37;;;;;;;14.30;6.80;;;14.30;99.90;;;;;;5048668;28;20029;-60
2021/08/28 06:51:03;;;;;;;15.80;7.25;;;14.30;99.90;;;;;;5039276;28;20087;-59
2021/08/28 06:53:29;;;;;;;15.40;7.53;;;14.50;99.90;;;;;;5047813;28;20031;-61
2021/08/28 06:55:54;;;;;;;14.43;6.95;;;14.40;99.90;;;;;;5045801;28;20404;-59
2021/08/28 06:58:20;;;;;;;16.83;7.45;;;14.50;99.90;;;;;;5047054;28;20100;-60
2021/08/28 07:00:46;;;;;;;17.48;8.25;;;14.60;99.90;;;;;;5046498;28;20075;-61
2021/08/28 07:03:11;;;;;;;18.50;8.18;;;14.60;99.90;;;;;;5046788;28;20108;-61
2021/08/28 07:05:37;;;;;;;14.68;7.75;;;14.50;99.90;;;;;;5047788;28;20404;-59
2021/08/28 07:08:03;;;;;;;25.90;9.00;;;14.60;99.90;;;;;;5044829;28;20025;-59
2021/08/28 07:10:28;;;;;;;17.85;9.18;;;14.60;99.90;;;;;;5044754;28;20111;-60
2021/08/28 07:12:54;;;;;;;21.80;9.32;;;14.50;99.90;;;;;;5046977;28;20029;-60
2021/08/28 07:15:19;;;;;;;18.08;7.00;;;14.50;99.90;;;;;;5046874;28;20633;-60
2021/08/28 07:17:45;;;;;;;20.38;11.05;;;14.50;99.90;;;;;;5044645;28;20460;-60
2021/08/28 07:20:11;;;;;;;23.75;11.43;;;14.50;99.90;;;;;;5040412;28;20323;-60
2021/08/28 07:22:37;;;;;;;22.88;11.30;;;14.60;99.90;;;;;;5044741;28;20040;-60
2021/08/28 07:25:04;;;;;;;25.50;11.15;;;14.70;99.90;;;;;;5044705;28;20017;-59
2021/08/28 07:27:29;;;;;;;26.83;13.23;;;14.80;99.90;;;;;;5043656;28;20021;-60
2021/08/28 07:29:55;;;;;;;24.00;11.73;;;14.80;99.90;;;;;;5033693;28;20032;-60
2021/08/28 07:32:20;;;;;;;24.67;11.80;;;14.80;99.90;;;;;;5042067;28;20018;-60
2021/08/28 07:34:47;;;;;;;25.60;13.70;;;14.90;99.90;;;;;;5046698;28;20416;-60
2021/08/28 07:37:12;;;;;;;25.63;13.48;;;15.00;99.90;;;;;;5044660;28;20017;-60
2021/08/28 07:39:38;;;;;;;24.20;12.85;;;15.10;99.90;;;;;;5040921;28;20029;-60
2021/08/28 07:42:04;;;;;;;25.17;13.02;;;15.30;99.90;;;;;;5042689;28;20061;-59
2021/08/28 07:44:30;;;;;;;22.83;13.07;;;15.40;99.90;;;;;;5044947;28;20028;-60
2021/08/28 07:46:57;;;;;;;26.20;13.93;;;15.40;99.90;;;;;;5043070;28;20029;-61
2021/08/28 07:49:23;;;;;;;27.52;13.63;;;15.50;99.90;;;;;;5041950;28;20025;-60
2021/08/28 07:51:48;;;;;;;24.42;14.20;;;15.60;99.90;;;;;;5044486;28;21027;-60
2021/08/28 07:54:14;;;;;;;24.50;13.02;;;15.50;99.90;;;;;;5039869;28;20047;-60
2021/08/28 07:56:40;;;;;;;19.83;11.05;;;15.60;99.90;;;;;;5042848;28;20036;-60
2021/08/28 07:59:05;;;;;;;20.02;11.00;;;15.50;99.90;;;;;;5044259;28;20041;-60
2021/08/28 08:01:31;;;;;;;19.05;11.25;;;15.50;99.90;;;;;;5044420;28;20649;-60
2021/08/28 08:03:57;;;;;;;19.75;10.98;;;15.60;99.90;;;;;;5041959;28;20028;-61
2021/08/28 08:06:22;;;;;;;20.08;9.82;;;15.90;99.90;;;;;;5039193;28;20028;-61
2021/08/28 08:08:48;;;;;;;16.85;9.32;;;16.00;99.90;;;;;;5034157;28;20052;-61
2021/08/28 08:11:16;;;;;;;15.95;8.23;;;16.10;99.90;;;;;;5035805;28;20036;-61
2021/08/28 08:13:43;;;;;;;15.65;7.90;;;16.40;99.90;;;;;;5042775;28;20062;-61
2021/08/28 08:16:09;;;;;;;15.02;7.78;;;16.50;99.90;;;;;;5040487;28;20396;-61
2021/08/28 08:18:34;;;;;;;15.75;8.40;;;16.60;99.90;;;;;;5039948;28;20033;-61
2021/08/28 08:21:00;;;;;;;15.70;8.27;;;16.60;99.90;;;;;;5039270;28;20025;-60
2021/08/28 08:23:26;;;;;;;16.25;8.23;;;16.60;99.90;;;;;;5044406;28;20025;-61
2021/08/28 08:25:52;;;;;;;14.85;8.18;;;17.00;99.90;;;;;;5041625;28;20139;-61
2021/08/28 08:28:18;;;;;;;13.63;7.82;;;17.50;99.90;;;;;;5035619;28;20104;-61
2021/08/28 08:30:44;;;;;;;14.15;7.78;;;18.40;99.90;;;;;;5043561;28;20378;-61
2021/08/28 08:33:09;;;;;;;13.63;6.43;;;18.40;99.90;;;;;;5042712;28;20483;-61
2021/08/28 08:35:35;;;;;;;13.38;6.70;;;18.10;99.90;;;;;;5044803;28;20016;-61
2021/08/28 08:38:02;;;;;;;14.80;6.57;;;18.10;99.90;;;;;;5043781;28;20068;-61
2021/08/28 08:40:30;;;;;;;12.38;6.18;;;17.90;99.90;;;;;;5039838;28;20079;-61
2021/08/28 08:42:59;;;;;;;13.63;7.40;;;17.90;99.90;;;;;;5042295;28;20020;-61
2021/08/28 08:45:25;;;;;;;13.10;7.07;;;17.60;99.90;;;;;;5045711;28;20151;-61
2021/08/28 08:47:52;;;;;;;12.55;6.60;;;17.70;99.90;;;;;;5043555;28;20024;-61
2021/08/28 08:50:19;;;;;;;12.98;6.30;;;18.00;99.90;;;;;;5042856;28;20041;-61
2021/08/28 08:52:49;;;;;;;12.23;6.20;;;18.10;99.90;;;;;;5042995;28;20029;-61
2021/08/28 08:55:15;;;;;;;;;;;18.20;99.90;;;;;;5041087;28;20112;-61
2021/08/28 08:57:41;;;;;;;15.10;7.18;;;17.70;99.90;;;;;;5041885;28;20004;-61
2021/08/28 09:00:08;;;;;;;11.98;6.85;;;17.90;99.90;;;;;;5041369;28;20087;-61
2021/08/28 09:02:34;;;;;;;13.25;7.28;;;17.80;99.90;;;;;;5041919;28;20025;-61
2021/08/28 09:05:00;;;;;;;13.07;6.90;;;17.80;99.90;;;;;;5042583;28;20056;-61
2021/08/28 09:07:25;;;;;;;15.02;6.47;;;17.60;99.90;;;;;;5041264;28;20056;-61
2021/08/28 09:09:51;;;;;;;12.90;6.97;;;17.50;99.90;;;;;;5039989;28;20071;-61
2021/08/28 09:12:17;;;;;;;10.95;6.00;;;17.50;99.90;;;;;;5033782;28;20064;-61
2021/08/28 09:14:43;;;;;;;12.27;6.80;;;17.80;99.90;;;;;;5041140;28;20024;-61
2021/08/28 09:17:20;;;;;;;13.90;6.53;;;18.10;99.90;;;;;;5045208;28;20515;-61
2021/08/28 09:19:48;;;;;;;15.05;7.07;;;17.60;99.90;;;;;;5044200;28;20481;-61
2021/08/28 09:22:32;;;;;;;13.07;7.32;;;17.30;99.90;;;;;;5042155;28;20017;-61
2021/08/28 09:25:04;;;;;;;18.55;8.75;;;17.30;99.90;;;;;;5039915;28;20020;-61
2021/08/28 09:27:33;;;;;;;15.23;8.65;;;16.80;99.90;;;;;;5037947;28;20029;-61
2021/08/28 09:30:00;;;;;;;14.75;7.13;;;16.70;99.90;;;;;;5036967;28;20021;-61
2021/08/28 09:32:25;;;;;;;15.75;9.02;;;16.80;99.90;;;;;;5040197;28;20104;-61
2021/08/28 09:34:51;;;;;;;15.85;7.47;;;16.90;99.90;;;;;;5035241;28;20282;-61
2021/08/28 09:37:16;;;;;;;15.45;6.63;;;17.10;99.90;;;;;;5039452;28;20428;-61
2021/08/28 09:39:46;;;;;;;13.45;6.30;;;17.20;99.90;;;;;;5037068;28;20044;-61
2021/08/28 09:42:21;;;;;;;10.73;5.78;;;17.70;99.90;;;;;;5040156;28;20022;-61
2021/08/28 09:44:50;;;;;;;11.05;4.93;;;18.40;99.90;;;;;;5044623;28;20028;-61
2021/08/28 09:47:17;;;;;;;10.38;4.70;;;18.90;99.90;;;;;;5039812;28;20032;-61
2021/08/28 09:49:45;;;;;;;13.65;5.63;;;18.90;99.90;;;;;;5039533;28;20028;-61
2021/08/28 09:52:22;;;;;;;10.70;3.97;;;19.40;99.90;;;;;;5040911;28;20021;-61
2021/08/28 09:54:49;;;;;;;11.88;5.25;;;19.30;99.90;;;;;;5038753;28;20032;-61
2021/08/28 09:57:15;;;;;;;9.55;4.70;;;18.90;99.90;;;;;;5041147;28;20020;-62
2021/08/28 09:59:43;;;;;;;10.80;5.43;;;18.60;99.90;;;;;;5044483;28;20091;-62
2021/08/28 10:02:11;;;;;;;11.10;5.88;;;18.30;99.90;;;;;;5048755;28;20035;-61
2021/08/28 10:04:56;;;;;;;12.02;6.68;;;18.30;99.90;;;;;;5049678;28;20051;-61
2021/08/28 10:07:28;;;;;;;9.82;5.35;;;18.20;99.90;;;;;;5046697;28;20434;-61
2021/08/28 10:09:57;;;;;;;11.50;5.70;;;18.20;99.90;;;;;;5041359;28;20035;-61
2021/08/28 10:12:24;;;;;;;11.93;5.70;;;18.40;99.90;;;;;;5039058;28;20477;-62
2021/08/28 10:14:52;;;;;;;10.73;5.65;;;18.90;99.90;;;;;;5041114;28;20032;-62
2021/08/28 10:17:19;;;;;;;11.52;5.50;;;19.20;99.90;;;;;;5040910;28;20036;-62
2021/08/28 10:19:50;;;;;;;11.35;5.30;;;19.10;99.90;;;;;;5042336;28;20026;-62
2021/08/28 10:22:20;;;;;;;13.10;5.50;;;18.90;99.90;;;;;;5039886;28;20049;-62
2021/08/28 10:24:47;;;;;;;11.80;5.10;;;18.60;99.90;;;;;;5040469;28;20066;-62
2021/08/28 10:27:13;;;;;;;11.38;5.72;;;18.40;99.90;;;;;;5040192;28;20021;-62
2021/08/28 10:29:40;;;;;;;10.15;4.97;;;18.20;99.90;;;;;;5039828;28;20033;-62
2021/08/28 10:32:06;;;;;;;10.68;4.75;;;18.60;99.90;;;;;;5037106;28;20346;-62
2021/08/28 10:34:35;;;;;;;9.98;5.13;;;19.10;99.90;;;;;;5045153;28;20048;-62
2021/08/28 10:37:01;;;;;;;10.10;4.90;;;19.20;99.90;;;;;;5042337;28;20033;-62
2021/08/28 10:39:27;;;;;;;9.00;4.75;;;19.30;99.90;;;;;;5048460;28;20033;-62
2021/08/28 10:41:54;;;;;;;9.00;4.38;;;19.40;99.90;;;;;;5042618;28;20033;-62
2021/08/28 10:44:20;;;;;;;8.73;4.90;;;19.40;99.90;;;;;;5043338;28;20032;-62
2021/08/28 10:46:46;;;;;;;9.50;4.80;;;19.50;99.90;;;;;;5047023;28;20025;-62
2021/08/28 10:49:12;;;;;;;9.45;4.50;;;19.60;99.90;;;;;;5039657;28;20079;-62
2021/08/28 10:51:42;;;;;;;8.57;4.45;;;20.00;99.90;;;;;;5044072;28;20576;-62
2021/08/28 10:54:12;;;;;;;10.77;4.97;;;20.00;99.90;;;;;;5040843;28;20022;-62
2021/08/28 10:56:50;;;;;;;;;;;19.80;99.90;;;;;;5040526;28;20021;-62
2021/08/28 10:59:22;;;;;;;9.95;5.03;;;19.10;99.90;;;;;;5043484;28;20356;-62
2021/08/28 11:01:50;;;;;;;10.52;5.47;;;18.30;99.90;;;;;;5046807;28;20116;-62
2021/08/28 11:04:32;;;;;;;10.35;5.60;;;17.80;99.90;;;;;;5044286;28;20075;-62
2021/08/28 11:07:19;;;;;;;11.10;5.28;;;17.50;99.90;;;;;;5033680;28;20025;-62
2021/08/28 11:10:20;;;;;;;12.80;5.93;;;17.20;99.90;;;;;;5035824;28;20022;-62
2021/08/28 11:12:55;;;;;;;12.50;6.72;;;17.00;99.90;;;;;;5034879;28;20029;-62
2021/08/28 11:15:30;;;;;;;14.65;6.65;;;16.80;99.90;;;;;;5042329;28;20024;-62
2021/08/28 11:17:57;;;;;;;15.35;7.18;;;16.80;99.90;;;;;;5036471;28;20053;-61
2021/08/28 11:20:25;;;;;;;12.57;6.75;;;16.60;99.90;;;;;;5039645;28;20021;-61
2021/08/28 11:22:52;;;;;;;12.65;7.03;;;16.30;99.90;;;;;;5037662;28;20042;-61
2021/08/28 11:25:22;;;;;;;12.80;6.97;;;16.10;99.90;;;;;;5038678;28;20051;-61
2021/08/28 11:27:53;;;;;;;;;;;16.00;99.90;;;;;;5038384;28;20548;-61
2021/08/28 11:30:41;;;;;;;13.32;6.38;;;16.20;99.90;;;;;;5040509;28;20473;-61
2021/08/28 11:33:20;;;;;;;12.52;6.68;;;16.20;99.90;;;;;;5034090;28;20040;-61
2021/08/28 11:35:51;;;;;;;11.25;6.88;;;16.50;99.90;;;;;;5041034;28;20361;-61
2021/08/28 11:38:23;;;;;;;12.57;6.53;;;17.00;99.90;;;;;;5041898;28;20036;-61
2021/08/28 11:41:01;;;;;;;11.70;6.53;;;17.60;99.90;;;;;;5040262;28;20133;-61
2021/08/28 11:43:35;;;;;;;10.70;6.03;;;18.10;99.90;;;;;;5042206;28;20036;-61
2021/08/28 11:46:23;;;;;;;11.35;5.65;;;18.80;99.90;;;;;;5041408;28;20024;-61
2021/08/28 11:48:50;;;;;;;10.40;5.20;;;19.20;99.90;;;;;;5039126;28;20053;-61
2021/08/28 11:51:20;;;;;;;10.05;3.75;;;19.70;99.90;;;;;;5037864;28;20057;-61
2021/08/28 11:53:51;;;;;;;9.93;5.00;;;19.90;99.90;;;;;;5039010;28;20204;-61
2021/08/28 11:56:19;;;;;;;9.65;4.55;;;19.90;99.90;;;;;;5040027;28;20351;-61
2021/08/28 11:58:56;;;;;;;8.70;4.13;;;20.40;99.90;;;;;;5039519;28;20099;-61
2021/08/28 12:01:27;;;;;;;8.43;4.35;;;21.60;99.90;;;;;;5033538;28;20500;-61
2021/08/28 12:03:53;;;;;;;8.38;3.95;;;22.70;99.90;;;;;;5040981;28;20021;-62
2021/08/28 12:06:22;;;;;;;8.35;3.90;;;23.70;99.90;;;;;;5033856;28;20029;-62
2021/08/28 12:08:48;;;;;;;8.75;4.07;;;;;;;;;;5039556;28;20029;-62
2021/08/28 12:11:15;;;;;;;8.40;4.28;;;23.00;99.90;;;;;;5033508;28;20446;-62
2021/08/28 12:13:49;;;;;;;8.10;4.10;;;22.40;99.90;;;;;;5042361;28;20162;-62
2021/08/28 12:16:30;;;;;;;7.55;3.75;;;23.40;99.90;;;;;;5032664;28;20401;-62
2021/08/28 12:19:01;;;;;;;9.55;4.10;;;23.00;99.90;;;;;;5042401;28;20466;-62
2021/08/28 12:21:28;;;;;;;7.55;3.88;;;24.00;99.90;;;;;;5038158;28;20370;-62
2021/08/28 12:23:54;;;;;;;7.45;3.40;;;24.20;99.90;;;;;;5034315;28;20057;-62
2021/08/28 12:26:20;;;;;;;8.20;3.83;;;25.00;99.90;;;;;;5030768;28;20393;-62
2021/08/28 12:28:46;;;;;;;7.78;3.60;;;25.00;99.90;;;;;;5035750;28;20029;-66
2021/08/28 12:31:12;;;;;;;9.38;4.07;;;22.80;99.90;;;;;;5036249;28;20530;-66
2021/08/28 12:33:38;;;;;;;7.40;3.85;;;22.70;99.90;;;;;;5036251;28;20053;-66
2021/08/28 12:36:04;;;;;;;8.70;4.35;;;21.70;99.90;;;;;;5039508;28;20507;-66